Time;durP1;ratioP1;P1;durP2;ratioP2;P2;SDS_P1;SDS_P2;PMS_P1;PMS_P2;Temp;Humidity;BMP_temperature;BMP_pressure;BME280_temperature;BME280_humidity;BME280_pressure;Samples;Min_cycle;Max_cycle;Signal;HPM_P1;HPM_P2
2021/12/29 00:01:04;;;;;;;;;;;8.40;99.90;;;;;;5095033;28;19920;-80
2021/12/29 00:03:31;;;;;;;;;;;8.50;99.90;;;;;;5096813;27;19928;-80
2021/12/29 00:05:58;;;;;;;;;;;8.50;99.90;;;;;;5106977;27;20002;-80
2021/12/29 00:08:28;;;;;;;;;;;8.60;99.90;;;;;;5117660;27;19920;-79
2021/12/29 00:10:56;;;;;;;;;;;8.60;99.90;;;;;;5111112;27;19920;-79
2021/12/29 00:13:28;;;;;;;;;;;8.60;99.90;;;;;;5102451;27;19965;-79
2021/12/29 00:15:58;;;;;;;;;;;8.60;99.90;;;;;;5102634;28;19946;-79
2021/12/29 00:18:29;;;;;;;;;;;8.70;99.90;;;;;;5109549;28;20014;-79
2021/12/29 00:20:56;;;;;;;;;;;8.70;99.90;;;;;;5101062;27;20338;-79
2021/12/29 00:23:27;;;;;;;;;;;8.70;99.90;;;;;;5102879;27;19966;-80
2021/12/29 00:26:03;;;;;;;;;;;8.70;99.90;;;;;;5101591;27;19978;-80
2021/12/29 00:28:29;;;;;;;;;;;8.70;99.90;;;;;;5107218;28;19920;-80
2021/12/29 00:30:56;;;;;;;;;;;8.70;99.90;;;;;;5111175;28;20400;-80
2021/12/29 00:33:23;;;;;;;;;;;8.70;99.90;;;;;;5097687;28;19927;-80
2021/12/29 00:35:49;;;;;;;;;;;8.70;99.90;;;;;;5103102;28;19956;-80
2021/12/29 00:38:16;;;;;;;;;;;8.60;99.90;;;;;;5092088;28;20015;-79
2021/12/29 00:40:43;;;;;;;;;;;8.60;99.90;;;;;;5102115;27;20018;-80
2021/12/29 00:43:10;;;;;;;;;;;8.60;99.90;;;;;;5107571;27;19920;-80
2021/12/29 00:45:39;;;;;;;;;;;8.60;99.90;;;;;;5100228;28;19926;-80
2021/12/29 00:48:11;;;;;;;;;;;8.60;99.90;;;;;;5102232;28;19959;-80
2021/12/29 00:50:39;;;;;;;;;;;8.60;99.90;;;;;;5101852;28;20293;-78
2021/12/29 00:53:07;;;;;;;;;;;8.60;99.90;;;;;;5107462;28;19930;-80
2021/12/29 00:55:36;;;;;;;;;;;8.60;99.90;;;;;;5104362;28;19920;-80
2021/12/29 00:58:04;;;;;;;;;;;8.60;99.90;;;;;;5099754;27;19919;-80
2021/12/29 01:00:31;;;;;;;;;;;8.60;99.90;;;;;;5094219;28;20357;-80
2021/12/29 01:02:58;;;;;;;;;;;8.70;99.90;;;;;;5094139;28;19920;-80
2021/12/29 01:05:26;;;;;;;;;;;8.70;99.90;;;;;;5094956;28;19924;-79
2021/12/29 01:07:55;;;;;;;;;;;8.70;99.90;;;;;;5096972;28;19920;-78
2021/12/29 01:10:21;;;;;;;;;;;8.70;99.90;;;;;;5104438;28;19926;-78
2021/12/29 01:12:56;;;;;;;;;;;8.60;99.90;;;;;;5092077;28;19999;-80
2021/12/29 01:15:31;;;;;;;;;;;8.60;99.90;;;;;;5091986;28;20013;-78
2021/12/29 01:18:03;;;;;;;;;;;8.50;99.90;;;;;;5098737;28;19923;-78
2021/12/29 01:20:30;;;;;;;;;;;8.40;99.90;;;;;;5094162;28;19920;-78
2021/12/29 01:22:58;;;;;;;;;;;8.30;99.90;;;;;;5108233;28;20226;-78
2021/12/29 01:25:28;;;;;;;;;;;8.30;99.90;;;;;;5103253;28;19970;-78
2021/12/29 01:27:55;;;;;;;;;;;8.20;99.90;;;;;;5100926;28;20016;-79
2021/12/29 01:30:22;;;;;;;;;;;8.20;99.90;;;;;;5106826;28;19926;-78
2021/12/29 01:32:49;;;;;;;;;;;8.10;99.90;;;;;;5092114;28;19949;-78
2021/12/29 01:35:15;;;;;;;;;;;8.10;99.90;;;;;;5091924;28;19928;-79
2021/12/29 01:37:50;;;;;;;;;;;8.00;99.90;;;;;;5086308;28;19934;-80
2021/12/29 01:40:17;;;;;;;;;;;8.10;99.90;;;;;;5093950;27;19927;-79
2021/12/29 01:42:44;;;;;;;;;;;8.00;99.90;;;;;;5093105;28;20018;-79
2021/12/29 01:45:11;;;;;;;;;;;8.00;99.90;;;;;;5080184;28;20005;-79
2021/12/29 01:47:38;;;;;;;;;;;8.00;99.90;;;;;;5105286;28;19920;-79
2021/12/29 01:50:10;;;;;;;;;;;8.00;99.90;;;;;;5103519;28;20010;-80
2021/12/29 01:52:39;;;;;;;;;;;7.90;99.90;;;;;;5107978;28;19924;-80
2021/12/29 01:55:08;;;;;;;;;;;7.90;99.90;;;;;;5107777;27;20418;-80
2021/12/29 01:57:35;;;;;;;;;;;7.90;99.90;;;;;;5092599;28;19919;-79
2021/12/29 02:00:04;;;;;;;;;;;7.90;99.90;;;;;;5098361;28;19926;-80
2021/12/29 02:02:31;;;;;;;;;;;7.90;99.90;;;;;;5103923;28;20019;-80
2021/12/29 02:04:58;;;;;;;;;;;7.90;99.90;;;;;;5104338;28;19919;-79
2021/12/29 02:07:25;;;;;;;;;;;7.90;99.90;;;;;;5116318;27;20298;-80
2021/12/29 02:09:51;;;;;;;;;;;7.90;99.90;;;;;;5095092;28;19928;-80
2021/12/29 02:12:21;;;;;;;;;;;8.00;99.90;;;;;;5106579;28;19927;-80
2021/12/29 02:14:48;;;;;;;;;;;8.00;99.90;;;;;;5094056;28;20011;-80
2021/12/29 02:17:15;;;;;;;;;;;8.00;99.90;;;;;;5100104;28;19919;-80
2021/12/29 02:19:46;;;;;;;;;;;8.00;99.90;;;;;;5099405;28;20540;-80
2021/12/29 02:27:45;;;;;;;;;;;8.00;99.90;;;;;;5099890;28;19956;-79
2021/12/29 02:30:12;;;;;;;;;;;8.00;99.90;;;;;;5097859;28;19919;-78
2021/12/29 02:32:39;;;;;;;;;;;8.00;99.90;;;;;;5099118;28;20425;-80
2021/12/29 02:35:06;;;;;;;;;;;8.00;99.90;;;;;;5105163;28;19926;-80
2021/12/29 02:37:33;;;;;;;;;;;8.00;99.90;;;;;;5108656;28;19920;-80
2021/12/29 02:40:04;;;;;;;;;;;8.00;99.90;;;;;;5095411;28;19959;-81
2021/12/29 02:42:38;;;;;;;;;;;7.90;99.90;;;;;;5096437;28;19968;-80
2021/12/29 02:45:06;;;;;;;;;;;7.90;99.90;;;;;;5095973;28;20038;-80
2021/12/29 02:47:33;;;;;;;;;;;7.90;99.90;;;;;;5096795;28;19919;-80
2021/12/29 02:50:03;;;;;;;;;;;7.90;99.90;;;;;;5100528;28;19919;-80
2021/12/29 02:52:30;;;;;;;;;;;7.90;99.90;;;;;;5111696;28;19920;-80
2021/12/29 02:54:59;;;;;;;;;;;7.90;99.90;;;;;;5108784;28;19928;-81
2021/12/29 02:57:28;;;;;;;;;;;7.90;99.90;;;;;;5099154;28;19964;-80
2021/12/29 02:59:55;;;;;;;;;;;7.80;99.90;;;;;;5097802;28;19920;-81
2021/12/29 03:02:22;;;;;;;;;;;7.90;99.90;;;;;;5109672;28;20522;-81
2021/12/29 03:04:49;;;;;;;;;;;7.80;99.90;;;;;;5101554;28;20025;-80
2021/12/29 03:07:15;;;;;;;;;;;7.90;99.90;;;;;;5099559;28;19966;-80
2021/12/29 03:09:42;;;;;;;;;;;7.80;99.90;;;;;;5096383;28;20620;-81
2021/12/29 03:12:12;;;;;;;;;;;7.90;99.90;;;;;;5095635;28;20010;-81
2021/12/29 03:14:48;;;;;;;;;;;7.90;99.90;;;;;;5101303;28;19920;-81
2021/12/29 03:17:15;;;;;;;;;;;7.80;99.90;;;;;;5098972;28;20438;-80
2021/12/29 03:19:59;;;;;;;;;;;7.80;99.90;;;;;;5096349;27;19920;-81
2021/12/29 03:22:25;;;;;;;;;;;7.80;99.90;;;;;;5094972;28;19963;-80
2021/12/29 03:24:52;;;;;;;;;;;7.90;99.90;;;;;;5109646;28;19920;-81
2021/12/29 03:27:19;;;;;;;;;;;7.80;99.90;;;;;;5097636;28;20015;-80
2021/12/29 03:29:46;;;;;;;;;;;7.80;99.90;;;;;;5103039;28;19919;-81
2021/12/29 03:32:21;;;;;;;;;;;7.90;99.90;;;;;;5101652;28;19920;-80
2021/12/29 03:34:47;;;;;;;;;;;7.90;99.90;;;;;;5105657;28;20293;-81
2021/12/29 03:37:14;;;;;;;;;;;7.90;99.90;;;;;;5111367;28;19920;-80
2021/12/29 03:39:41;;;;;;;;;;;7.90;99.90;;;;;;5103698;28;19970;-82
2021/12/29 03:42:08;;;;;;;;;;;7.90;99.90;;;;;;5105595;28;19934;-80
2021/12/29 03:44:34;;;;;;;;;;;7.90;99.90;;;;;;5100050;28;20373;-81
2021/12/29 03:47:02;;;;;;;;;;;8.00;99.90;;;;;;5100449;27;19919;-79
2021/12/29 03:49:28;;;;;;;;;;;8.00;99.90;;;;;;5112900;28;19963;-80
2021/12/29 03:51:55;;;;;;;;;;;8.10;99.90;;;;;;5096806;27;19963;-80
2021/12/29 03:54:24;;;;;;;;;;;8.10;99.90;;;;;;5097816;28;19970;-80
2021/12/29 03:56:51;;;;;;;;;;;8.00;99.90;;;;;;5102061;28;19926;-80
2021/12/29 03:59:17;;;;;;;;;;;8.00;99.90;;;;;;5108931;28;20010;-80
2021/12/29 04:01:46;;;;;;;;;;;8.00;99.90;;;;;;5108489;28;20332;-79
2021/12/29 04:04:16;;;;;;;;;;;8.00;99.90;;;;;;5099439;27;19959;-79
2021/12/29 04:06:42;;;;;;;;;;;8.00;99.90;;;;;;5104110;28;19920;-79
2021/12/29 04:09:09;;;;;;;;;;;7.90;99.90;;;;;;5097921;28;19920;-78
2021/12/29 04:11:35;;;;;;;;;;;7.80;99.90;;;;;;5094843;28;19999;-78
2021/12/29 04:14:02;;;;;;;;;;;7.80;99.90;;;;;;5098304;28;19920;-78
2021/12/29 04:16:29;;;;;;;;;;;7.70;99.90;;;;;;5110364;28;19966;-79
2021/12/29 04:19:06;;;;;;;;;;;7.80;99.90;;;;;;5106147;28;19920;-80
2021/12/29 04:21:35;;;;;;;;;;;7.70;99.90;;;;;;5099623;28;19973;-80
2021/12/29 04:24:04;;;;;;;;;;;7.70;99.90;;;;;;5113240;28;20289;-80
2021/12/29 04:26:33;;;;;;;;;;;7.70;99.90;;;;;;5096247;28;19926;-80
2021/12/29 04:29:04;;;;;;;;;;;7.70;99.90;;;;;;5100186;27;19999;-79
2021/12/29 04:31:31;;;;;;;;;;;7.70;99.90;;;;;;5098014;28;19920;-80
2021/12/29 04:33:58;;;;;;;;;;;7.70;99.90;;;;;;5104135;28;20348;-80
2021/12/29 04:36:24;;;;;;;;;;;7.70;99.90;;;;;;5106209;28;20369;-80
2021/12/29 04:38:51;;;;;;;;;;;7.70;99.90;;;;;;5100373;28;19920;-80
2021/12/29 04:41:25;;;;;;;;;;;7.70;99.90;;;;;;5096466;28;19924;-80
2021/12/29 04:43:52;;;;;;;;;;;7.70;99.90;;;;;;5099874;28;19919;-80
2021/12/29 04:46:27;;;;;;;;;;;7.70;99.90;;;;;;5093979;28;20019;-80
2021/12/29 04:48:59;;;;;;;;;;;7.70;99.90;;;;;;5096348;28;19959;-80
2021/12/29 04:51:34;;;;;;;;;;;7.70;99.90;;;;;;5096935;28;20301;-80
2021/12/29 04:54:01;;;;;;;;;;;7.80;99.90;;;;;;5113233;28;19920;-81
2021/12/29 04:56:31;;;;;;;;;;;7.80;99.90;;;;;;5095000;27;20346;-80
2021/12/29 04:58:57;;;;;;;;;;;7.90;99.90;;;;;;5107526;28;19927;-80
2021/12/29 05:01:24;;;;;;;;;;;7.90;99.90;;;;;;5108829;28;19920;-81
2021/12/29 05:03:52;;;;;;;;;;;8.00;99.90;;;;;;5097270;28;19920;-81
2021/12/29 05:09:18;;;;;;;;;;;8.00;99.90;;;;;;5111066;27;19959;-81
2021/12/29 05:11:46;;;;;;;;;;;8.00;99.90;;;;;;5096446;28;19920;-81
2021/12/29 05:14:13;;;;;;;;;;;8.00;99.90;;;;;;5102362;27;20011;-81
2021/12/29 05:16:40;;;;;;;;;;;8.10;99.90;;;;;;5112890;27;20014;-81
2021/12/29 05:19:07;;;;;;;;;;;8.10;99.90;;;;;;5095760;27;20018;-81
2021/12/29 05:21:36;;;;;;;;;;;8.10;99.90;;;;;;5100271;28;20293;-81
2021/12/29 05:24:03;;;;;;;;;;;8.10;99.90;;;;;;5100394;28;19919;-81
2021/12/29 05:26:30;;;;;;;;;;;8.20;99.90;;;;;;5110268;28;19926;-81
2021/12/29 05:28:59;;;;;;;;;;;8.20;99.90;;;;;;5093319;28;20046;-81
2021/12/29 05:31:27;;;;;;;;;;;8.20;99.90;;;;;;5099067;27;19920;-81
2021/12/29 05:33:55;;;;;;;;;;;8.20;99.90;;;;;;5098168;28;19955;-81
2021/12/29 05:36:24;;;;;;;;;;;8.20;99.90;;;;;;5112937;27;19927;-81
2021/12/29 05:38:53;;;;;;;;;;;8.10;99.90;;;;;;5106294;28;20517;-81
2021/12/29 05:41:20;;;;;;;;;;;8.10;99.90;;;;;;5096798;28;20293;-80
2021/12/29 05:43:46;;;;;;;;;;;8.00;99.90;;;;;;5108652;28;20298;-81
2021/12/29 05:46:13;;;;;;;;;;;8.00;99.90;;;;;;5113547;27;20302;-81
2021/12/29 05:48:40;;;;;;;;;;;8.00;99.90;;;;;;5116145;27;19927;-81
2021/12/29 05:51:06;;;;;;;;;;;8.00;99.90;;;;;;5098036;28;19937;-81
2021/12/29 05:53:33;;;;;;;;;;;8.10;99.90;;;;;;5109563;28;19920;-80
2021/12/29 05:56:00;;;;;;;;;;;8.10;99.90;;;;;;5107931;28;20374;-80
2021/12/29 05:58:27;;;;;;;;;;;8.00;99.90;;;;;;5102103;28;20014;-81
2021/12/29 06:00:53;;;;;;;;;;;8.00;99.90;;;;;;5091741;28;19926;-81
2021/12/29 06:03:23;;;;;;;;;;;8.00;99.90;;;;;;5093473;28;19980;-81
2021/12/29 06:05:50;;;;;;;;;;;8.00;99.90;;;;;;5102930;28;19974;-80
2021/12/29 06:08:17;;;;;;;;;;;7.90;99.90;;;;;;5093713;28;20366;-81
2021/12/29 06:10:46;;;;;;;;;;;7.90;99.90;;;;;;5098384;27;19928;-79
2021/12/29 06:13:19;;;;;;;;;;;7.80;99.90;;;;;;5096458;28;19923;-77
2021/12/29 06:15:48;;;;;;;;;;;7.80;99.90;;;;;;5102504;28;19919;-79
2021/12/29 06:18:16;;;;;;;;;;;7.70;99.90;;;;;;5112779;28;19995;-79
2021/12/29 06:20:42;;;;;;;;;;;7.70;99.90;;;;;;5107464;28;19926;-79
2021/12/29 06:23:12;;;;;;;;;;;7.70;99.90;;;;;;5105835;28;20351;-79
2021/12/29 06:25:39;;;;;;;;;;;7.70;99.90;;;;;;5100147;28;19931;-79
2021/12/29 06:28:06;;;;;;;;;;;7.70;99.90;;;;;;5110220;27;19923;-79
2021/12/29 06:30:33;;;;;;;;;;;7.70;99.90;;;;;;5100368;28;19962;-78
2021/12/29 06:32:59;;;;;;;;;;;7.60;99.90;;;;;;5106970;28;19967;-78
2021/12/29 06:35:26;;;;;;;;;;;7.60;99.90;;;;;;5104277;28;20023;-79
2021/12/29 06:37:53;;;;;;;;;;;7.60;99.90;;;;;;5108018;28;19926;-79
2021/12/29 06:40:19;;;;;;;;;;;7.60;99.90;;;;;;5092438;28;19935;-78
2021/12/29 06:42:54;;;;;;;;;;;7.60;99.90;;;;;;5105296;28;19930;-78
2021/12/29 06:45:26;;;;;;;;;;;7.50;99.90;;;;;;5092654;28;19920;-79
2021/12/29 06:47:56;;;;;;;;;;;7.50;99.90;;;;;;5098696;28;20392;-79
2021/12/29 06:50:23;;;;;;;;;;;7.50;99.90;;;;;;5109262;28;19934;-78
2021/12/29 06:52:50;;;;;;;;;;;7.50;99.90;;;;;;5096974;28;19926;-78
2021/12/29 06:55:16;;;;;;;;;;;7.50;99.90;;;;;;5096909;28;20370;-78
2021/12/29 06:57:43;;;;;;;;;;;7.50;99.90;;;;;;5099787;28;19920;-78
2021/12/29 07:00:10;;;;;;;;;;;7.50;99.90;;;;;;5104562;28;19928;-78
2021/12/29 07:02:37;;;;;;;;;;;7.40;99.90;;;;;;5093023;28;19923;-79
2021/12/29 07:05:04;;;;;;;;;;;7.40;99.90;;;;;;5106887;28;19919;-79
2021/12/29 07:07:31;;;;;;;;;;;7.40;99.90;;;;;;5106013;28;19926;-79
2021/12/29 07:09:58;;;;;;;;;;;7.40;99.90;;;;;;5107067;28;19919;-79
2021/12/29 07:12:24;;;;;;;;;;;7.40;99.90;;;;;;5094269;28;19942;-79
2021/12/29 07:14:51;;;;;;;;;;;7.30;99.90;;;;;;5097094;28;20586;-79
2021/12/29 07:17:18;;;;;;;;;;;7.30;99.90;;;;;;5101679;28;19926;-78
2021/12/29 07:19:45;;;;;;;;;;;7.30;99.90;;;;;;5099171;28;20352;-79
2021/12/29 07:22:12;;;;;;;;;;;7.30;99.90;;;;;;5096254;28;19920;-78
2021/12/29 07:24:38;;;;;;;;;;;7.30;99.90;;;;;;5100453;28;19931;-78
2021/12/29 07:27:05;;;;;;;;;;;7.30;99.90;;;;;;5111038;28;19924;-79
2021/12/29 07:29:32;;;;;;;;;;;7.30;99.90;;;;;;5113013;28;19930;-78
2021/12/29 07:32:01;;;;;;;;;;;7.20;99.90;;;;;;5103821;28;19920;-78
2021/12/29 07:34:28;;;;;;;;;;;7.20;99.90;;;;;;5102841;28;20120;-78
2021/12/29 07:36:55;;;;;;;;;;;7.30;99.90;;;;;;5111686;28;20384;-78
2021/12/29 07:39:22;;;;;;;;;;;7.20;99.90;;;;;;5111304;28;19942;-78
2021/12/29 07:41:50;;;;;;;;;;;7.30;99.90;;;;;;5102344;28;20010;-78
2021/12/29 07:44:17;;;;;;;;;;;7.20;99.90;;;;;;5107625;28;20361;-79
2021/12/29 07:46:46;;;;;;;;;;;7.30;99.90;;;;;;5121108;27;20006;-79
2021/12/29 07:49:20;;;;;;;;;;;7.30;99.90;;;;;;5098590;28;19935;-78
2021/12/29 07:51:48;;;;;;;;;;;7.30;99.90;;;;;;5104652;28;20006;-78
2021/12/29 07:54:15;;;;;;;;;;;7.20;99.90;;;;;;5100631;28;20166;-78
2021/12/29 07:56:45;;;;;;;;;;;7.30;99.90;;;;;;5104488;28;20011;-79
2021/12/29 07:59:13;;;;;;;;;;;7.30;99.90;;;;;;5097043;27;20114;-80
2021/12/29 08:01:41;;;;;;;;;;;7.30;99.90;;;;;;5100383;27;20003;-79
2021/12/29 08:04:13;;;;;;;;;;;7.30;99.90;;;;;;5114408;27;19920;-79
2021/12/29 08:06:39;;;;;;;;;;;7.30;99.90;;;;;;5122370;27;20357;-79
2021/12/29 08:09:09;;;;;;;;;;;7.20;99.90;;;;;;5105591;27;20025;-79
2021/12/29 08:11:37;;;;;;;;;;;7.20;99.90;;;;;;5113687;28;19924;-79
2021/12/29 08:14:03;;;;;;;;;;;7.30;99.90;;;;;;5103668;28;20006;-78
2021/12/29 08:16:30;;;;;;;;;;;7.30;99.90;;;;;;5101310;27;19920;-79
2021/12/29 08:18:57;;;;;;;;;;;7.40;99.90;;;;;;5111359;27;20045;-79
2021/12/29 08:21:24;;;;;;;;;;;7.40;99.90;;;;;;5109674;28;20010;-79
2021/12/29 08:23:53;;;;;;;;;;;7.50;99.90;;;;;;5109850;28;19920;-78
2021/12/29 08:26:22;;;;;;;;;;;7.50;99.90;;;;;;5091114;28;19935;-79
2021/12/29 08:28:50;;;;;;;;;;;7.60;99.90;;;;;;5094714;28;20581;-78
2021/12/29 08:31:17;;;;;;;;;;;7.60;99.90;;;;;;5094444;28;19956;-79
2021/12/29 08:33:44;;;;;;;;;;;7.60;99.90;;;;;;5109644;28;19959;-78
2021/12/29 08:36:11;;;;;;;;;;;7.60;99.90;;;;;;5104084;28;19970;-79
2021/12/29 08:38:38;;;;;;;;;;;7.60;99.90;;;;;;5105384;28;19923;-79
2021/12/29 08:41:06;;;;;;;;;;;7.60;99.90;;;;;;5101241;28;20217;-79
2021/12/29 08:43:33;;;;;;;;;;;7.60;99.90;;;;;;5102552;28;19924;-78
2021/12/29 08:46:00;;;;;;;;;;;7.60;99.90;;;;;;5091933;28;19928;-79
2021/12/29 08:48:27;;;;;;;;;;;7.70;99.90;;;;;;5098695;28;19925;-79
2021/12/29 08:50:57;;;;;;;;;;;7.70;99.90;;;;;;5108637;27;20010;-79
2021/12/29 08:53:24;;;;;;;;;;;7.80;99.90;;;;;;5093706;28;19926;-79
2021/12/29 08:55:51;;;;;;;;;;;7.90;99.90;;;;;;5106646;28;20008;-79
2021/12/29 08:58:22;;;;;;;;;;;8.00;99.90;;;;;;5096069;28;20356;-79
2021/12/29 09:00:49;;;;;;;;;;;8.00;99.90;;;;;;5106135;28;19938;-79
2021/12/29 09:03:16;;;;;;;;;;;8.10;99.90;;;;;;5099077;28;20405;-79
2021/12/29 09:05:45;;;;;;;;;;;8.20;99.90;;;;;;5093848;28;19955;-80
2021/12/29 09:08:12;;;;;;;;;;;8.40;99.90;;;;;;5101871;28;19932;-79
2021/12/29 09:10:41;;;;;;;;;;;8.50;99.90;;;;;;5107204;28;19924;-79
2021/12/29 09:13:12;;;;;;;;;;;8.70;99.90;;;;;;5113142;27;20360;-79
2021/12/29 09:15:39;;;;;;;;;;;8.80;99.90;;;;;;5102395;28;19931;-80
2021/12/29 09:18:06;;;;;;;;;;;9.00;99.90;;;;;;5104269;28;19924;-80
2021/12/29 09:20:33;;;;;;;;;;;9.10;99.90;;;;;;5099001;28;19938;-79
2021/12/29 09:23:02;;;;;;;;;;;9.10;99.90;;;;;;5099061;27;19963;-80
2021/12/29 09:25:35;;;;;;;;;;;9.20;99.90;;;;;;5113941;27;20033;-79
2021/12/29 09:28:02;;;;;;;;;;;9.30;99.90;;;;;;5103271;27;19924;-79
2021/12/29 09:30:31;;;;;;;;;;;9.40;99.90;;;;;;5099043;27;19924;-79
2021/12/29 09:32:58;;;;;;;;;;;9.40;99.90;;;;;;5094288;28;19924;-80
2021/12/29 09:35:24;;;;;;;;;;;9.50;99.90;;;;;;5105530;28;19927;-80
2021/12/29 09:37:52;;;;;;;;;;;9.50;99.90;;;;;;5106354;28;19968;-79
2021/12/29 09:40:20;;;;;;;;;;;9.50;99.90;;;;;;5108804;27;20014;-80
2021/12/29 09:42:48;;;;;;;;;;;9.50;99.90;;;;;;5095506;28;20426;-80
2021/12/29 09:45:15;;;;;;;;;;;9.50;99.90;;;;;;5097604;28;19932;-80
2021/12/29 09:47:41;;;;;;;;;;;9.60;99.90;;;;;;5111704;27;19930;-80
2021/12/29 09:50:10;;;;;;;;;;;9.70;99.90;;;;;;5101013;28;20195;-78
2021/12/29 09:52:43;;;;;;;;;;;9.90;99.90;;;;;;5101716;28;19979;-77
2021/12/29 09:55:11;;;;;;;;;;;10.00;99.90;;;;;;5102321;28;20019;-77
2021/12/29 09:57:41;;;;;;;;;;;10.20;99.90;;;;;;5098284;28;20010;-78
2021/12/29 10:00:31;;;;;;;;;;;10.30;99.90;;;;;;5093936;28;19924;-78
2021/12/29 10:02:59;;;;;;;;;;;10.40;99.90;;;;;;5096245;28;20023;-78
2021/12/29 10:05:36;;;;;;;;;;;10.50;99.90;;;;;;5096826;28;19927;-77
2021/12/29 10:08:07;;;;;;;;;;;10.40;99.90;;;;;;5112859;28;19971;-77
2021/12/29 10:10:35;;;;;;;;;;;10.40;99.90;;;;;;5116766;27;19924;-77
2021/12/29 10:13:02;;;;;;;;;;;10.30;99.90;;;;;;5102933;28;20025;-78
2021/12/29 10:15:37;;;;;;;;;;;10.40;99.90;;;;;;5097170;28;19928;-79
2021/12/29 10:18:08;;;;;;;;;;;10.30;99.90;;;;;;5112065;28;20593;-79
2021/12/29 10:20:53;;;;;;;;;;;10.30;99.90;;;;;;5098214;28;19924;-78
2021/12/29 10:23:39;;;;;;;;;;;10.20;99.90;;;;;;5096803;28;20014;-77
2021/12/29 10:26:31;;;;;;;;;;;10.10;99.90;;;;;;5096248;28;19931;-78
2021/12/29 10:29:01;;;;;;;;;;;10.10;99.90;;;;;;5103283;28;19931;-79
2021/12/29 10:31:48;;;;;;;;;;;10.30;99.90;;;;;;5101603;27;19977;-78
2021/12/29 10:34:29;;;;;;;;;;;10.40;99.90;;;;;;5096831;28;19924;-78
2021/12/29 10:36:59;;;;;;;;;;;10.40;99.90;;;;;;5100172;28;20390;-78
2021/12/29 10:39:28;;;;;;;;;;;10.40;99.90;;;;;;5098390;28;20019;-79
2021/12/29 10:41:55;;;;;;;;;;;10.40;99.90;;;;;;5097445;27;19959;-79
2021/12/29 10:44:27;;;;;;;;;;;10.40;99.90;;;;;;5104923;28;19930;-79
2021/12/29 10:46:56;;;;;;;;;;;10.50;99.90;;;;;;5105503;28;19928;-78
2021/12/29 10:49:25;;;;;;;;;;;10.70;99.90;;;;;;5105233;27;19950;-78
2021/12/29 10:51:56;;;;;;;;;;;10.80;99.90;;;;;;5096778;28;20402;-79
2021/12/29 10:54:26;;;;;;;;;;;10.90;99.90;;;;;;5096293;28;19947;-79
2021/12/29 10:56:58;;;;;;;;;;;10.90;99.90;;;;;;5105605;28;19928;-79
2021/12/29 10:59:29;;;;;;;;;;;10.80;99.90;;;;;;5099127;28;19924;-79
2021/12/29 11:01:56;;;;;;;;;;;10.80;99.90;;;;;;5112213;27;19924;-78
2021/12/29 11:04:26;;;;;;;;;;;10.90;99.90;;;;;;5100525;28;19924;-79
2021/12/29 11:06:56;;;;;;;;;;;11.00;99.90;;;;;;5109940;28;19970;-79
2021/12/29 11:09:27;;;;;;;;;;;10.90;99.90;;;;;;5107101;28;20038;-79
2021/12/29 11:11:55;;;;;;;;;;;10.90;99.90;;;;;;5096930;28;19972;-78
2021/12/29 11:14:24;;;;;;;;;;;10.80;99.90;;;;;;5106586;27;20625;-79
2021/12/29 11:16:59;;;;;;;;;;;10.80;99.90;;;;;;5119200;27;19949;-79
2021/12/29 11:19:26;;;;;;;;;;;10.80;99.90;;;;;;5104829;28;19932;-79
2021/12/29 11:22:03;;;;;;;;;;;10.80;99.90;;;;;;5093802;28;20382;-79
2021/12/29 11:24:30;;;;;;;;;;;10.80;99.90;;;;;;5113504;27;20014;-79
2021/12/29 11:26:58;;;;;;;;;;;11.00;99.90;;;;;;5110183;28;20030;-79
2021/12/29 11:29:25;;;;;;;;;;;11.00;99.90;;;;;;5108380;27;19928;-79
2021/12/29 11:32:00;;;;;;;;;;;11.00;99.90;;;;;;5105604;27;19924;-78
2021/12/29 11:34:27;;;;;;;;;;;11.00;99.90;;;;;;5099756;28;19924;-79
2021/12/29 11:37:07;;;;;;;;;;;10.90;99.90;;;;;;5104961;28;19923;-79
2021/12/29 11:39:36;;;;;;;;;;;10.80;99.90;;;;;;5094093;28;20422;-79
2021/12/29 11:42:03;;;;;;;;;;;10.80;99.90;;;;;;5101925;28;19923;-78
2021/12/29 11:44:30;;;;;;;;;;;10.80;99.90;;;;;;5107420;28;20386;-79
2021/12/29 11:46:57;;;;;;;;;;;10.70;99.90;;;;;;5094721;28;19924;-79
2021/12/29 11:49:24;;;;;;;;;;;10.70;99.90;;;;;;5109277;27;20049;-79
2021/12/29 11:52:14;;;;;;;;;;;10.70;99.90;;;;;;5106509;27;19981;-79
2021/12/29 11:55:02;;;;;;;;;;;10.60;99.90;;;;;;5106240;28;20692;-79
2021/12/29 11:57:31;;;;;;;;;;;10.50;99.90;;;;;;5095681;28;19924;-79
2021/12/29 12:00:09;;;;;;;;;;;10.50;99.90;;;;;;5100030;28;20007;-78
2021/12/29 12:02:36;;;;;;;;;;;10.60;99.90;;;;;;5102045;28;20557;-78
2021/12/29 12:05:04;;;;;;;;;;;10.60;99.90;;;;;;5091061;28;19932;-79
2021/12/29 12:07:31;;;;;;;;;;;10.60;99.90;;;;;;5109651;28;19932;-79
2021/12/29 12:10:01;;;;;;;;;;;10.60;99.90;;;;;;5102303;27;19928;-79
2021/12/29 12:12:54;;;;;;;;;;;10.60;99.90;;;;;;5106922;27;19924;-79
2021/12/29 12:15:32;;;;;;;;;;;10.60;99.90;;;;;;5102500;28;19934;-79
2021/12/29 12:18:07;;;;;;;;;;;10.60;99.90;;;;;;5104436;28;20006;-79
2021/12/29 12:20:50;;;;;;;;;;;10.70;99.90;;;;;;5093328;28;19932;-79
2021/12/29 12:23:24;;;;;;;;;;;10.80;99.90;;;;;;5093327;28;20279;-80
2021/12/29 12:25:51;;;;;;;;;;;10.90;99.90;;;;;;5105145;28;19928;-80
2021/12/29 12:28:21;;;;;;;;;;;11.00;99.90;;;;;;5100750;28;19938;-79
2021/12/29 12:30:51;;;;;;;;;;;11.00;99.90;;;;;;5107701;28;20010;-79
2021/12/29 12:33:28;;;;;;;;;;;11.00;99.90;;;;;;5093057;28;19974;-79
2021/12/29 12:36:04;;;;;;;;;;;10.90;99.90;;;;;;5098425;28;19946;-79
2021/12/29 12:38:34;;;;;;;;;;;10.70;99.90;;;;;;5093405;28;19924;-79
2021/12/29 12:41:03;;;;;;;;;;;10.60;99.90;;;;;;5094123;28;19924;-79
2021/12/29 12:43:30;;;;;;;;;;;10.50;99.90;;;;;;5094370;28;19924;-78
2021/12/29 12:45:57;;;;;;;;;;;10.40;99.90;;;;;;5101536;28;20018;-79
2021/12/29 12:48:28;;;;;;;;;;;10.30;99.90;;;;;;5106019;27;19924;-78
2021/12/29 12:50:55;;;;;;;;;;;10.20;99.90;;;;;;5110730;28;19931;-80
2021/12/29 12:53:43;;;;;;;;;;;10.10;99.90;;;;;;5113491;28;19978;-80
2021/12/29 12:56:17;;;;;;;;;;;10.00;99.90;;;;;;5125715;27;19928;-80
2021/12/29 12:58:46;;;;;;;;;;;9.90;99.90;;;;;;5111617;28;19987;-82
2021/12/29 13:01:24;;;;;;;;;;;9.90;99.90;;;;;;5108412;28;20424;-80
2021/12/29 13:03:53;;;;;;;;;;;9.80;99.90;;;;;;5097809;28;19932;-80
2021/12/29 13:06:24;;;;;;;;;;;9.70;99.90;;;;;;5094109;28;22391;-80
2021/12/29 13:08:51;;;;;;;;;;;9.60;99.90;;;;;;5106768;28;19927;-81
2021/12/29 13:11:21;;;;;;;;;;;9.60;99.90;;;;;;5107746;28;19924;-80
2021/12/29 13:13:50;;;;;;;;;;;9.60;99.90;;;;;;5103749;28;20034;-80
2021/12/29 13:16:20;;;;;;;;;;;9.60;99.90;;;;;;5103084;27;20042;-80
2021/12/29 13:18:47;;;;;;;;;;;9.60;99.90;;;;;;5121591;27;19973;-80
2021/12/29 13:21:37;;;;;;;;;;;9.60;99.90;;;;;;5103141;28;19930;-81
2021/12/29 13:24:06;;;;;;;;;;;9.60;99.90;;;;;;5122206;27;20011;-81
2021/12/29 13:26:36;;;;;;;;;;;9.60;99.90;;;;;;5121583;27;19971;-80
2021/12/29 13:29:03;;;;;;;;;;;9.60;99.90;;;;;;5107420;28;19923;-80
2021/12/29 13:31:33;;;;;;;;;;;9.60;99.90;;;;;;5107922;28;19930;-80
2021/12/29 13:34:00;;;;;;;;;;;9.50;99.90;;;;;;5108906;27;19931;-80
2021/12/29 13:36:28;;;;;;;;;;;9.50;99.90;;;;;;5104659;27;20011;-81
2021/12/29 13:38:57;;;;;;;;;;;9.50;99.90;;;;;;5112224;27;20019;-81
2021/12/29 13:41:28;;;;;;;;;;;9.40;99.90;;;;;;5098872;28;20374;-79
2021/12/29 13:43:57;;;;;;;;;;;9.40;99.90;;;;;;5111280;28;19924;-79
2021/12/29 13:46:31;;;;;;;;;;;9.30;99.90;;;;;;5106406;28;19924;-80
2021/12/29 13:48:58;;;;;;;;;;;9.30;99.90;;;;;;5096660;28;19928;-79
2021/12/29 13:51:34;;;;;;;;;;;9.20;99.90;;;;;;5095742;28;19966;-79
2021/12/29 13:54:05;;;;;;;;;;;9.10;99.90;;;;;;5090026;28;19924;-82
2021/12/29 13:56:36;;;;;;;;;;;9.10;99.90;;;;;;5104745;28;19927;-79
2021/12/29 13:59:07;;;;;;;;;;;9.00;99.90;;;;;;5106381;28;19927;-79
2021/12/29 14:01:38;;;;;;;;;;;9.00;99.90;;;;;;5112359;28;19930;-79
2021/12/29 14:04:06;;;;;;;;;;;8.90;99.90;;;;;;5101445;28;19927;-79
2021/12/29 14:06:33;;;;;;;;;;;8.90;99.90;;;;;;5095837;28;19932;-80
2021/12/29 14:09:00;;;;;;;;;;;8.80;99.90;;;;;;5102105;28;19924;-79
2021/12/29 14:11:27;;;;;;;;;;;8.70;99.90;;;;;;5102097;28;19923;-82
2021/12/29 14:13:58;;;;;;;;;;;8.70;99.90;;;;;;5101351;28;20079;-79
2021/12/29 14:16:27;;;;;;;;;;;8.70;99.90;;;;;;5105259;28;20393;-80
2021/12/29 14:18:57;;;;;;;;;;;8.70;99.90;;;;;;5096500;28;19923;-80
2021/12/29 14:21:27;;;;;;;;;;;8.70;99.90;;;;;;5109740;27;19950;-80
2021/12/29 14:23:56;;;;;;;;;;;8.60;99.90;;;;;;5096092;28;19924;-79
2021/12/29 14:26:34;;;;;;;;;;;8.60;99.90;;;;;;5102883;28;20015;-79
2021/12/29 14:29:07;;;;;;;;;;;8.60;99.90;;;;;;5108050;28;19938;-79
2021/12/29 14:31:44;;;;;;;;;;;8.60;99.90;;;;;;5102123;28;19982;-79
2021/12/29 14:34:16;;;;;;;;;;;8.60;99.90;;;;;;5105318;28;20007;-79
2021/12/29 14:36:48;;;;;;;;;;;8.60;99.90;;;;;;5103269;28;19930;-79
2021/12/29 14:39:18;;;;;;;;;;;8.60;99.90;;;;;;5104777;28;19924;-79
2021/12/29 14:41:45;;;;;;;;;;;8.60;99.90;;;;;;5097263;28;20003;-80
2021/12/29 14:44:14;;;;;;;;;;;8.50;99.90;;;;;;5104289;28;19960;-79
2021/12/29 14:46:55;;;;;;;;;;;8.50;99.90;;;;;;5100726;28;20004;-79
2021/12/29 14:49:29;;;;;;;;;;;8.50;99.90;;;;;;5100898;28;19924;-79